Terminal Aerodrome Forecast
Issued by NWS Sioux Falls, SD

Home | Current Version | Previous Version | Text Only | Print | Product List | Glossary On
Versions: 1 2 3 4 5 6 7 8 9 10 11 12 13 14 15 16 17 18 19 20
000
FTUS43 KFSD 272024 AAA
TAFHON
TAF AMD
KHON 272024Z 2720/2818 21007KT P6SM SKC
      TEMPO 2721/2724 BKN035
     FM280000 19006KT P6SM SCT025
     FM281100 04008KT P6SM SCT015
     FM281400 02012KT P6SM BKN015=

USA.gov is the U.S. government's official web portal to all federal, state and local government web resources and services.